Time;durP1;ratioP1;P1;durP2;ratioP2;P2;SDS_P1;SDS_P2;PMS_P1;PMS_P2;Temp;Humidity;BMP_temperature;BMP_pressure;BME280_temperature;BME280_humidity;BME280_pressure;Samples;Min_cycle;Max_cycle;Signal;HPM_P1;HPM_P2
2022/01/13 00:01:57;;;;;;;173.73;28.75;;;;;;;0.63;100.00;104190.66;5050087;28;20493;-80
2022/01/13 00:04:23;;;;;;;68.60;24.33;;;;;;;0.62;100.00;104191.47;5052048;28;20037;-80
2022/01/13 00:06:49;;;;;;;165.25;31.58;;;;;;;0.61;100.00;104196.53;5052305;28;20041;-80
2022/01/13 00:09:16;;;;;;;82.47;23.70;;;;;;;0.62;100.00;104198.38;5050476;28;20041;-80
2022/01/13 00:11:43;;;;;;;90.95;27.95;;;;;;;0.60;100.00;104195.66;5051827;28;20075;-80
2022/01/13 00:25:12;;;;;;;85.40;24.67;;;;;;;0.49;100.00;104198.25;5028824;28;20057;-80
2022/01/13 00:27:42;;;;;;;80.80;24.55;;;;;;;0.50;100.00;104205.31;5031213;28;20045;-80
2022/01/13 00:30:15;;;;;;;128.45;24.65;;;;;;;0.51;100.00;104202.78;5029853;28;20041;-80
2022/01/13 00:32:40;;;;;;;144.55;24.30;;;;;;;0.49;100.00;104209.59;4997816;28;20029;-80
2022/01/13 00:35:06;;;;;;;80.20;22.98;;;;;;;0.52;100.00;104207.22;5029783;28;20068;-79
2022/01/13 00:37:34;;;;;;;97.90;24.25;;;;;;;0.52;100.00;104199.41;5029644;28;20052;-80
2022/01/13 00:39:59;;;;;;;69.32;22.17;;;;;;;0.54;100.00;104205.63;5030785;28;20029;-80
2022/01/13 00:42:25;;;;;;;99.90;23.80;;;;;;;0.58;100.00;104196.34;5029298;28;20387;-80
2022/01/13 00:44:51;;;;;;;78.38;22.85;;;;;;;0.56;100.00;104193.59;5013040;28;20045;-80
2022/01/13 00:47:16;;;;;;;113.28;25.52;;;;;;;0.53;100.00;104182.94;5029574;28;20195;-79
2022/01/13 00:49:42;;;;;;;73.03;24.30;;;;;;;0.55;100.00;104181.38;5029270;28;20494;-80
2022/01/13 00:52:07;;;;;;;69.40;23.77;;;;;;;0.58;100.00;104178.06;5030795;28;20109;-79
2022/01/13 00:54:34;;;;;;;83.13;24.00;;;;;;;0.56;100.00;104172.75;5013158;28;20048;-79
2022/01/13 00:57:00;;;;;;;116.13;24.55;;;;;;;0.57;100.00;104171.03;5013021;28;20160;-79
2022/01/13 00:59:25;;;;;;;86.47;25.88;;;;;;;0.58;100.00;104167.66;5030817;28;20062;-80
2022/01/13 01:01:53;;;;;;;79.93;23.10;;;;;;;0.56;100.00;104170.13;5029140;28;20041;-80
2022/01/13 01:04:19;;;;;;;67.72;23.85;;;;;;;0.56;100.00;104162.31;5030800;28;20046;-80
2022/01/13 01:06:45;;;;;;;87.38;24.52;;;;;;;0.57;100.00;104169.34;5029212;28;20029;-80
2022/01/13 01:09:18;;;;;;;88.65;21.60;;;;;;;0.57;100.00;104169.34;5030544;28;20044;-80
2022/01/13 01:11:47;;;;;;;57.83;22.90;;;;;;;0.56;100.00;104174.44;5030319;28;20041;-80
2022/01/13 01:14:14;;;;;;;107.20;25.58;;;;;;;0.55;100.00;104180.47;5029458;28;20087;-80
2022/01/13 01:16:40;;;;;;;90.95;21.35;;;;;;;0.58;100.00;104172.88;5042901;28;20083;-80
2022/01/13 01:19:08;;;;;;;96.03;21.63;;;;;;;0.56;100.00;104171.84;5050024;28;20094;-80
2022/01/13 01:29:40;;;;;;;117.45;22.95;;;;;;;0.47;100.00;104177.31;5032069;28;20086;-80
2022/01/13 01:31:56;;;;;;;79.80;21.33;;;;;;;0.47;100.00;104177.31;5049660;28;20063;-80
2022/01/13 01:36:54;;;;;;;81.05;18.85;;;;;;;0.50;100.00;104176.63;5048418;28;20063;-79
2022/01/13 01:39:20;;;;;;;52.45;19.60;;;;;;;0.50;100.00;104174.00;5049930;28;20061;-80
2022/01/13 01:41:49;;;;;;;56.42;21.52;;;;;;;0.51;100.00;104183.63;5049835;28;20417;-80
2022/01/13 01:44:28;;;;;;;67.05;21.02;;;;;;;0.51;100.00;104171.50;5049676;28;20052;-79
2022/01/13 01:46:54;;;;;;;49.92;20.45;;;;;;;0.56;100.00;104180.56;5050017;28;20060;-79
2022/01/13 01:49:23;;;;;;;113.55;25.88;;;;;;;0.52;100.00;104170.72;5047203;28;20063;-80
2022/01/13 01:51:52;;;;;;;81.45;19.75;;;;;;;0.50;100.00;104174.91;5028511;28;20042;-80
2022/01/13 01:54:18;;;;;;;90.20;16.17;;;;;;;0.51;100.00;104174.09;5029842;28;20432;-80
2022/01/13 01:56:44;;;;;;;72.40;19.45;;;;;;;0.48;100.00;104167.78;5028557;28;20036;-80
2022/01/13 01:59:14;;;;;;;124.72;21.70;;;;;;;0.48;100.00;104170.38;5028334;28;20052;-80
2022/01/13 02:01:41;;;;;;;105.95;20.77;;;;;;;0.46;100.00;104172.88;5028378;28;20040;-80
2022/01/13 02:04:07;;;;;;;80.53;20.02;;;;;;;0.42;100.00;104163.94;5028762;28;20342;-79
2022/01/13 02:06:35;;;;;;;95.75;23.20;;;;;;;0.42;100.00;104165.59;5028478;28;20040;-79
2022/01/13 02:09:01;;;;;;;69.10;18.40;;;;;;;0.42;100.00;104163.00;5028419;28;20041;-80
2022/01/13 02:11:27;;;;;;;64.40;22.08;;;;;;;0.40;100.00;104173.34;5028377;28;20365;-80
2022/01/13 02:13:56;;;;;;;74.32;19.05;;;;;;;0.41;100.00;104171.63;5028078;28;20077;-80
2022/01/13 02:16:47;;;;;;;72.70;20.40;;;;;;;0.41;100.00;104172.53;5029661;28;20049;-80
2022/01/13 02:19:10;;;;;;;58.35;19.40;;;;;;;0.40;100.00;104170.72;5028114;28;20117;-79
2022/01/13 02:21:37;;;;;;;99.55;22.38;;;;;;;0.42;100.00;104171.75;5028398;28;20068;-80
2022/01/13 02:24:02;;;;;;;70.25;18.45;;;;;;;0.42;100.00;104174.34;5029404;28;20037;-80
2022/01/13 02:26:28;;;;;;;69.25;19.50;;;;;;;0.43;100.00;104175.25;5014491;28;20128;-80
2022/01/13 02:28:54;;;;;;;92.85;19.88;;;;;;;0.43;100.00;104173.56;5032052;28;20136;-80
2022/01/13 02:31:21;;;;;;;79.93;19.40;;;;;;;0.45;100.00;104167.56;5048676;28;20037;-80
2022/01/13 02:33:47;;;;;;;77.80;22.33;;;;;;;0.45;100.00;104172.78;5033104;28;20029;-80
2022/01/13 02:36:17;;;;;;;86.40;22.83;;;;;;;0.45;100.00;104170.16;5033515;28;20528;-80
2022/01/13 02:38:49;;;;;;;92.43;21.85;;;;;;;0.42;100.00;104171.75;5033001;28;20037;-80
2022/01/13 02:41:15;;;;;;;68.75;21.50;;;;;;;0.47;100.00;104171.16;5033189;28;20041;-80
2022/01/13 02:43:43;;;;;;;62.03;21.13;;;;;;;0.47;100.00;104164.28;5031638;28;20038;-80
2022/01/13 02:49:22;;;;;;;75.88;19.35;;;;;;;0.54;100.00;104152.56;5033023;28;20078;-80
2022/01/13 02:51:51;;;;;;;66.55;19.52;;;;;;;0.55;100.00;104162.22;5032950;28;20583;-80
2022/01/13 02:54:17;;;;;;;82.00;19.83;;;;;;;0.56;100.00;104161.41;5031366;28;20041;-80
2022/01/13 02:56:44;;;;;;;48.55;20.60;;;;;;;0.54;100.00;104157.78;5015104;28;20087;-80
2022/01/13 02:59:09;;;;;;;75.25;21.92;;;;;;;0.56;100.00;104162.31;5032598;28;20041;-80
2022/01/13 03:01:35;;;;;;;115.30;23.88;;;;;;;0.60;100.00;104171.28;5031592;28;20040;-80
2022/01/13 03:04:05;;;;;;;120.38;25.20;;;;;;;0.56;100.00;104172.75;5031259;28;20060;-80
2022/01/13 03:06:35;;;;;;;137.98;25.40;;;;;;;0.55;100.00;104164.81;5031407;28;20037;-79
2022/01/13 03:09:03;;;;;;;71.63;22.45;;;;;;;0.56;100.00;104175.34;4982895;28;20084;-79
2022/01/13 03:11:35;;;;;;;73.10;22.63;;;;;;;0.58;100.00;104167.66;5032651;28;20045;-79
2022/01/13 03:14:02;;;;;;;162.32;24.27;;;;;;;0.60;100.00;104160.84;5015310;28;20049;-80
2022/01/13 03:16:28;;;;;;;109.72;22.17;;;;;;;0.60;100.00;104166.97;5038041;28;20042;-80
2022/01/13 03:18:54;;;;;;;112.00;23.95;;;;;;;0.60;100.00;104163.44;5032276;28;20041;-80
2022/01/13 03:21:19;;;;;;;56.70;20.55;;;;;;;0.60;100.00;104163.44;5031019;28;20061;-80
2022/01/13 03:23:45;;;;;;;93.38;20.73;;;;;;;0.65;100.00;104167.28;5030746;28;20037;-79
2022/01/13 03:26:10;;;;;;;72.65;18.58;;;;;;;0.64;100.00;104162.84;5032162;28;20034;-80
2022/01/13 03:28:54;;;;;;;89.55;18.67;;;;;;;0.66;100.00;104156.06;5030659;28;20048;-80
2022/01/13 03:31:22;;;;;;;78.20;18.40;;;;;;;0.66;100.00;104150.84;5014587;28;20044;-79
2022/01/13 03:33:48;;;;;;;72.72;18.85;;;;;;;0.66;100.00;104137.78;5031971;28;20114;-80
2022/01/13 03:36:14;;;;;;;205.95;24.08;;;;;;;0.62;100.00;104141.91;4997967;28;20166;-80
2022/01/13 03:38:40;;;;;;;139.07;24.38;;;;;;;0.61;100.00;104145.28;5013421;28;20045;-80
2022/01/13 03:41:05;;;;;;;94.03;21.75;;;;;;;0.60;100.00;104138.28;5031043;28;20049;-80
2022/01/13 03:43:32;;;;;;;94.65;19.88;;;;;;;0.62;100.00;104133.19;5030710;28;20033;-80
2022/01/13 03:45:57;;;;;;;59.72;19.92;;;;;;;0.61;100.00;104132.25;5030878;28;20042;-80
2022/01/13 03:48:23;;;;;;;217.45;26.88;;;;;;;0.58;100.00;104131.13;5030859;28;20095;-80
2022/01/13 03:50:49;;;;;;;107.72;21.58;;;;;;;0.59;100.00;104119.88;5043938;28;20400;-80
2022/01/13 03:53:27;;;;;;;150.45;24.48;;;;;;;0.59;100.00;104126.03;5017357;28;20043;-80
2022/01/13 03:56:30;;;;;;;172.32;28.10;;;;;;;0.58;100.00;104131.13;5052000;28;20464;-80
2022/01/13 03:59:33;;;;;;;98.05;21.58;;;;;;;0.60;100.00;104132.16;5033886;28;20148;-80
2022/01/13 04:02:17;;;;;;;124.78;23.38;;;;;;;0.57;100.00;104131.91;5051762;28;20163;-80
2022/01/13 04:04:44;;;;;;;89.38;21.80;;;;;;;0.56;100.00;104135.31;5050329;28;20045;-79
2022/01/13 04:07:16;;;;;;;52.33;19.90;;;;;;;0.56;100.00;104133.63;5050279;28;20055;-80
2022/01/13 04:09:41;;;;;;;93.22;22.13;;;;;;;0.57;100.00;104137.13;5051490;28;20041;-79
2022/01/13 04:12:11;;;;;;;143.85;23.33;;;;;;;0.53;100.00;104138.63;5051369;28;20057;-79
2022/01/13 04:14:49;;;;;;;95.43;20.15;;;;;;;0.52;100.00;104134.22;5051265;28;20044;-80
2022/01/13 04:17:18;;;;;;;71.47;18.88;;;;;;;0.54;100.00;104131.69;5034301;28;20052;-80
2022/01/13 04:19:46;;;;;;;135.65;21.42;;;;;;;0.52;100.00;104138.50;5029905;28;20120;-80
2022/01/13 04:22:12;;;;;;;82.03;18.52;;;;;;;0.57;100.00;104132.84;5030041;28;20033;-80
2022/01/13 04:24:42;;;;;;;133.07;21.95;;;;;;;0.53;100.00;104130.78;5029636;28;20049;-80
2022/01/13 04:27:09;;;;;;;64.03;16.60;;;;;;;0.51;100.00;104127.16;5031171;28;20041;-80
2022/01/13 04:29:37;;;;;;;112.65;22.50;;;;;;;0.49;100.00;104130.47;5031011;28;20033;-80
2022/01/13 04:32:04;;;;;;;93.93;18.85;;;;;;;0.51;100.00;104131.47;5029780;28;20347;-80
2022/01/13 04:34:30;;;;;;;80.80;18.75;;;;;;;0.49;100.00;104128.75;5013379;28;20044;-80
2022/01/13 04:36:58;;;;;;;71.53;19.70;;;;;;;0.43;100.00;104129.22;5029716;28;20037;-80
2022/01/13 04:39:24;;;;;;;72.75;17.55;;;;;;;0.47;100.00;104124.22;5012942;28;20037;-80
2022/01/13 04:41:52;;;;;;;109.13;19.75;;;;;;;0.45;100.00;104116.31;5013327;28;20147;-80
2022/01/13 04:44:19;;;;;;;87.03;19.92;;;;;;;0.42;100.00;104124.81;5029372;28;20334;-80
2022/01/13 04:46:46;;;;;;;129.05;19.30;;;;;;;0.43;100.00;104117.91;5013658;28;20052;-80
2022/01/13 04:49:12;;;;;;;73.22;19.40;;;;;;;0.38;100.00;104127.09;5029289;28;20037;-80
2022/01/13 04:51:39;;;;;;;74.88;17.83;;;;;;;0.41;100.00;104132.50;5013389;28;20091;-80
2022/01/13 04:54:06;;;;;;;55.58;16.30;;;;;;;0.38;100.00;104117.56;5029322;28;20454;-80
2022/01/13 04:56:40;;;;;;;87.00;17.70;;;;;;;0.42;100.00;104116.06;5030749;28;20064;-80
2022/01/13 04:59:07;;;;;;;67.50;18.17;;;;;;;0.42;100.00;104126.50;5030872;28;20457;-80
2022/01/13 05:01:33;;;;;;;59.45;16.80;;;;;;;0.40;100.00;104115.06;5029321;28;20095;-80
2022/01/13 05:03:59;;;;;;;91.55;18.75;;;;;;;0.38;100.00;104116.66;5013103;28;20033;-80
2022/01/13 05:06:24;;;;;;;65.72;19.33;;;;;;;0.39;100.00;104124.56;5044184;28;20760;-79
2022/01/13 05:08:50;;;;;;;50.80;17.98;;;;;;;0.41;100.00;104128.19;5049323;28;20351;-80
2022/01/13 05:11:17;;;;;;;111.43;20.17;;;;;;;0.41;100.00;104119.47;5049227;28;20587;-80
2022/01/13 05:13:44;;;;;;;91.47;18.42;;;;;;;0.42;100.00;104127.44;5032478;28;20331;-80
2022/01/13 05:16:18;;;;;;;96.18;20.13;;;;;;;0.43;100.00;104129.22;5050726;28;20366;-80
2022/01/13 05:18:56;;;;;;;73.40;20.92;;;;;;;0.40;100.00;104138.53;5050502;28;20117;-79
2022/01/13 05:21:37;;;;;;;48.45;17.65;;;;;;;0.40;100.00;104147.25;5049355;28;20047;-80
2022/01/13 05:24:03;;;;;;;64.88;17.90;;;;;;;0.37;100.00;104143.50;5050376;28;20044;-80
2022/01/13 05:26:28;;;;;;;94.40;18.67;;;;;;;0.36;100.00;104140.00;5049289;28;20028;-80
2022/01/13 05:28:54;;;;;;;52.55;19.15;;;;;;;0.36;100.00;104133.88;5050369;28;20354;-80
2022/01/13 05:31:19;;;;;;;106.63;22.10;;;;;;;0.38;100.00;104132.31;5050578;28;20072;-79
2022/01/13 05:33:45;;;;;;;78.82;19.98;;;;;;;0.37;100.00;104128.78;5032387;28;20052;-80
2022/01/13 05:36:12;;;;;;;54.13;19.38;;;;;;;0.35;100.00;104121.66;5049428;28;20040;-80
2022/01/13 05:38:40;;;;;;;79.22;22.05;;;;;;;0.37;100.00;104128.78;5031486;28;20044;-80
2022/01/13 05:41:05;;;;;;;104.22;21.10;;;;;;;0.38;100.00;104124.47;5030671;28;20505;-80
2022/01/13 05:43:31;;;;;;;81.55;17.92;;;;;;;0.37;100.00;104123.59;5030495;28;20037;-80
2022/01/13 05:45:56;;;;;;;81.13;19.38;;;;;;;0.35;100.00;104125.16;5012299;28;20041;-80
2022/01/13 05:48:22;;;;;;;102.25;20.30;;;;;;;0.30;100.00;104117.81;5029136;28;20112;-80
2022/01/13 05:50:47;;;;;;;89.78;22.08;;;;;;;0.29;100.00;104129.91;5012463;28;20049;-80
2022/01/13 05:53:13;;;;;;;107.32;21.20;;;;;;;0.32;100.00;104137.06;5030069;28;20068;-80
2022/01/13 05:55:39;;;;;;;83.13;20.02;;;;;;;0.31;100.00;104132.66;5012352;28;20034;-80
2022/01/13 05:58:05;;;;;;;111.47;22.75;;;;;;;0.28;100.00;104124.59;5028877;28;20061;-80
2022/01/13 06:00:31;;;;;;;59.95;18.23;;;;;;;0.29;100.00;104129.00;5015095;28;20045;-80
2022/01/13 06:02:57;;;;;;;100.30;22.83;;;;;;;0.28;100.00;104129.81;5018971;28;20037;-80
2022/01/13 06:05:22;;;;;;;86.32;21.45;;;;;;;0.29;100.00;104126.41;5041466;28;20029;-80
2022/01/13 06:07:48;;;;;;;107.35;23.13;;;;;;;0.29;100.00;104129.00;5038615;28;20077;-80
2022/01/13 06:10:18;;;;;;;108.40;21.95;;;;;;;0.28;100.00;104129.81;5055128;28;20083;-80
2022/01/13 06:12:46;;;;;;;87.75;22.38;;;;;;;0.26;100.00;104134.91;5038631;28;20045;-80
2022/01/13 06:15:14;;;;;;;113.40;20.90;;;;;;;0.27;100.00;104128.88;5056031;28;20029;-80
2022/01/13 06:17:41;;;;;;;88.95;24.20;;;;;;;0.28;100.00;104130.72;5039013;28;20048;-80
2022/01/13 06:20:10;;;;;;;112.03;21.73;;;;;;;0.29;100.00;104129.91;5038462;28;20075;-80
2022/01/13 06:22:36;;;;;;;89.57;22.08;;;;;;;0.30;100.00;104129.13;5054824;28;20112;-80
2022/01/13 06:25:04;;;;;;;121.45;26.02;;;;;;;0.28;100.00;104128.13;5038286;28;20041;-80
2022/01/13 06:27:29;;;;;;;125.60;23.88;;;;;;;0.31;100.00;104125.72;5054344;28;20045;-80
2022/01/13 06:29:55;;;;;;;131.68;24.20;;;;;;;0.32;100.00;104129.22;5054407;28;20063;-80
2022/01/13 06:32:21;;;;;;;84.70;22.50;;;;;;;0.30;100.00;104129.13;5054478;28;20453;-80
2022/01/13 06:34:48;;;;;;;119.28;24.73;;;;;;;0.32;100.00;104135.38;5037574;28;20047;-80
2022/01/13 06:37:13;;;;;;;127.85;22.13;;;;;;;0.33;100.00;104126.75;5038181;28;20136;-80
2022/01/13 06:39:39;;;;;;;81.13;23.20;;;;;;;0.32;100.00;104130.16;5055220;28;20235;-80
2022/01/13 06:42:05;;;;;;;174.50;29.73;;;;;;;0.32;100.00;104124.00;5038072;28;20138;-80
2022/01/13 06:44:31;;;;;;;116.80;22.58;;;;;;;0.32;100.00;104124.00;5054360;28;20047;-80
2022/01/13 06:46:57;;;;;;;128.75;21.98;;;;;;;0.32;100.00;104129.22;5037968;28;20037;-80
2022/01/13 06:49:23;;;;;;;107.85;22.40;;;;;;;0.34;100.00;104123.34;5055953;28;20530;-80
2022/01/13 06:51:48;;;;;;;102.88;22.38;;;;;;;0.34;100.00;104123.34;5038172;28;20033;-80
2022/01/13 06:54:14;;;;;;;87.80;19.55;;;;;;;0.32;100.00;104111.91;5037747;28;20121;-80
2022/01/13 06:56:39;;;;;;;88.45;21.73;;;;;;;0.36;100.00;104120.84;5055386;28;20357;-81
2022/01/13 06:59:10;;;;;;;86.95;19.92;;;;;;;0.37;100.00;104120.03;5037629;28;20049;-81
2022/01/13 07:01:37;;;;;;;69.35;19.88;;;;;;;0.37;100.00;104126.19;5054292;28;20043;-81
2022/01/13 07:04:03;;;;;;;64.85;19.63;;;;;;;0.38;100.00;104127.09;5055909;28;20190;-81
2022/01/13 07:06:28;;;;;;;173.75;22.38;;;;;;;0.40;100.00;104123.78;5054220;28;20119;-81
2022/01/13 07:08:53;;;;;;;135.80;21.33;;;;;;;0.40;100.00;104130.72;5037631;28;20504;-81
2022/01/13 07:11:19;;;;;;;119.13;21.13;;;;;;;0.41;100.00;104117.78;5055044;28;20107;-81
2022/01/13 07:13:44;;;;;;;60.88;19.38;;;;;;;0.41;100.00;104122.97;5051003;28;20211;-81
2022/01/13 07:16:10;;;;;;;106.18;22.40;;;;;;;0.42;100.00;104114.38;5052662;28;20041;-81
2022/01/13 07:18:38;;;;;;;74.00;19.45;;;;;;;0.42;100.00;104108.25;5034570;28;20029;-80
2022/01/13 07:21:09;;;;;;;116.25;24.40;;;;;;;0.43;100.00;104123.09;5034610;28;20067;-82
2022/01/13 07:23:35;;;;;;;76.95;20.95;;;;;;;0.42;100.00;104109.16;5051161;28;20041;-81
2022/01/13 07:26:02;;;;;;;74.60;19.33;;;;;;;0.45;100.00;104112.81;5034329;28;20051;-80
2022/01/13 07:28:30;;;;;;;96.30;19.55;;;;;;;0.44;100.00;104117.09;5034861;28;20035;-81
2022/01/13 07:30:57;;;;;;;143.60;22.65;;;;;;;0.42;100.00;104126.50;5051222;28;20032;-81
2022/01/13 07:33:23;;;;;;;98.68;19.27;;;;;;;0.39;100.00;104129.78;5034475;28;20025;-81
2022/01/13 07:35:50;;;;;;;95.95;19.52;;;;;;;0.40;100.00;104125.50;5050835;28;20384;-80
2022/01/13 07:38:16;;;;;;;117.88;18.48;;;;;;;0.40;100.00;104120.28;5034205;28;20094;-81
2022/01/13 07:40:41;;;;;;;83.53;17.85;;;;;;;0.39;100.00;104121.06;5014514;28;20053;-80
2022/01/13 07:43:07;;;;;;;112.55;17.52;;;;;;;0.39;100.00;104115.84;5031189;28;20086;-80
2022/01/13 07:45:32;;;;;;;79.50;20.13;;;;;;;0.44;100.00;104109.25;4998225;28;20041;-80
2022/01/13 07:47:58;;;;;;;88.47;17.58;;;;;;;0.43;100.00;104116.19;5030760;28;20403;-81
2022/01/13 07:50:23;;;;;;;109.30;18.80;;;;;;;0.44;100.00;104117.09;4997940;28;20045;-80
2022/01/13 07:52:49;;;;;;;111.43;19.13;;;;;;;0.48;100.00;104120.84;5031967;28;20045;-80
2022/01/13 07:55:15;;;;;;;81.43;16.90;;;;;;;0.48;100.00;104126.94;5014322;28;20124;-80
2022/01/13 07:57:40;;;;;;;110.60;17.55;;;;;;;0.53;100.00;104127.28;5030497;28;20124;-80
2022/01/13 08:00:08;;;;;;;99.97;20.15;;;;;;;0.51;100.00;104136.69;5013898;28;20049;-80
2022/01/13 08:02:38;;;;;;;125.80;19.25;;;;;;;0.53;100.00;104141.22;5030421;28;20033;-81
2022/01/13 08:05:04;;;;;;;74.68;18.38;;;;;;;0.57;100.00;104142.34;5030221;28;20481;-81
2022/01/13 08:07:30;;;;;;;103.53;17.38;;;;;;;0.56;100.00;104140.53;5031394;28;20365;-80
2022/01/13 08:09:55;;;;;;;105.47;19.02;;;;;;;0.57;100.00;104139.72;5031680;28;20034;-81
2022/01/13 08:12:21;;;;;;;81.32;18.63;;;;;;;0.60;100.00;104137.38;5030102;28;20139;-81
2022/01/13 08:14:47;;;;;;;101.55;19.85;;;;;;;0.60;100.00;104146.09;5030082;28;20045;-81
2022/01/13 08:19:45;;;;;;;70.78;18.08;;;;;;;0.63;100.00;104137.59;5030264;28;20064;-81
2022/01/13 08:19:59;;;;;;;80.05;17.65;;;;;;;0.63;100.00;104143.69;5031394;28;20114;-81
2022/01/13 08:22:24;;;;;;;102.13;18.73;;;;;;;0.61;100.00;104136.56;5013471;28;20033;-81
2022/01/13 08:24:50;;;;;;;112.55;19.02;;;;;;;0.62;100.00;104139.28;4996705;28;20112;-81
2022/01/13 08:27:15;;;;;;;68.85;19.33;;;;;;;0.63;100.00;104141.09;5013403;28;20049;-81
2022/01/13 08:29:41;;;;;;;91.63;18.80;;;;;;;0.66;100.00;104143.00;5030028;28;20203;-82
2022/01/13 08:32:07;;;;;;;72.55;15.80;;;;;;;0.67;100.00;104157.88;5031439;28;20047;-81
2022/01/13 08:34:33;;;;;;;78.40;17.13;;;;;;;0.63;100.00;104155.84;5013572;28;20029;-82
2022/01/13 08:36:59;;;;;;;94.50;16.30;;;;;;;0.66;100.00;104161.28;5030171;28;20379;-82
2022/01/13 08:39:25;;;;;;;46.08;15.05;;;;;;;0.68;100.00;104169.22;5031390;28;20620;-82
2022/01/13 08:41:51;;;;;;;80.90;15.77;;;;;;;0.66;100.00;104165.59;5029964;28;20044;-81
2022/01/13 08:44:17;;;;;;;48.58;15.20;;;;;;;0.64;100.00;104166.41;5031498;28;20477;-86
2022/01/13 08:46:42;;;;;;;93.47;18.25;;;;;;;0.70;100.00;104162.41;5014121;28;20087;-90
2022/01/13 08:49:09;;;;;;;78.35;15.63;;;;;;;0.69;100.00;104173.63;5013520;28;20043;-82
2022/01/13 08:51:36;;;;;;;47.15;15.25;;;;;;;0.66;100.00;104162.97;5030055;28;20029;-82
2022/01/13 08:54:02;;;;;;;105.18;18.33;;;;;;;0.69;100.00;104161.47;5013032;28;20151;-82
2022/01/13 08:56:27;;;;;;;49.88;15.20;;;;;;;0.73;100.00;104163.53;5012847;28;20033;-82
2022/01/13 08:58:53;;;;;;;128.07;18.73;;;;;;;0.75;100.00;104167.16;4996449;28;20060;-82
2022/01/13 09:01:19;;;;;;;107.28;19.20;;;;;;;0.77;100.00;104169.88;5029790;28;20112;-82
2022/01/13 09:03:45;;;;;;;58.63;16.80;;;;;;;0.79;100.00;104173.50;5029527;28;20100;-82
2022/01/13 09:06:10;;;;;;;77.40;15.63;;;;;;;0.82;100.00;104176.34;5041933;28;20086;-81
2022/01/13 09:08:36;;;;;;;74.70;18.52;;;;;;;0.82;100.00;104168.50;5016581;28;20037;-82
2022/01/13 09:11:02;;;;;;;74.38;17.73;;;;;;;0.79;100.00;104166.59;5049381;28;20041;-81
2022/01/13 09:13:30;;;;;;;61.70;17.13;;;;;;;0.81;100.00;104172.78;5016424;28;20056;-81
2022/01/13 09:15:59;;;;;;;90.85;20.98;;;;;;;0.83;100.00;104172.91;5049418;28;20423;-82
2022/01/13 09:18:45;;;;;;;68.68;18.48;;;;;;;0.86;100.00;104187.06;5032958;28;20048;-82
2022/01/13 09:21:11;;;;;;;54.92;16.08;;;;;;;0.85;100.00;104174.84;5050752;28;20060;-81
2022/01/13 09:23:36;;;;;;;40.13;14.77;;;;;;;0.89;100.00;104172.44;5049502;28;20053;-81
2022/01/13 09:26:04;;;;;;;88.50;18.80;;;;;;;0.87;100.00;104172.34;5016005;28;20404;-82
2022/01/13 09:28:29;;;;;;;73.13;17.15;;;;;;;0.91;100.00;104171.75;5014586;28;20029;-81
2022/01/13 09:30:55;;;;;;;71.97;18.63;;;;;;;0.93;100.00;104178.00;5029511;28;20038;-81
2022/01/13 09:33:21;;;;;;;56.47;17.45;;;;;;;0.97;100.00;104176.53;5012989;28;20045;-82
2022/01/13 09:35:47;;;;;;;78.47;18.98;;;;;;;1.00;100.00;104171.53;5029886;28;20045;-82
2022/01/13 09:38:13;;;;;;;69.38;20.20;;;;;;;1.01;100.00;104155.94;5029015;28;20051;-81
2022/01/13 09:40:42;;;;;;;78.70;19.05;;;;;;;0.97;100.00;104159.16;5029029;28;20528;-82
2022/01/13 09:43:08;;;;;;;82.28;18.30;;;;;;;1.01;100.00;104171.59;5028951;28;20489;-81
2022/01/13 09:45:35;;;;;;;55.95;18.15;;;;;;;1.05;100.00;104175.34;5012387;28;20047;-82
2022/01/13 09:48:00;;;;;;;62.90;15.85;;;;;;;1.07;100.00;104179.88;5029182;28;20071;-82
2022/01/13 09:50:26;;;;;;;112.30;19.10;;;;;;;1.05;100.00;104180.56;5029108;28;20485;-82
2022/01/13 09:52:52;;;;;;;74.53;16.95;;;;;;;1.01;100.00;104175.94;5028938;28;20221;-81
2022/01/13 09:55:19;;;;;;;75.88;19.33;;;;;;;1.06;100.00;104190.22;4996130;28;20048;-82
2022/01/13 09:57:51;;;;;;;72.18;16.88;;;;;;;1.04;100.00;104187.50;5028950;28;20021;-82
2022/01/13 10:00:22;;;;;;;65.40;19.88;;;;;;;1.10;100.00;104189.63;5030262;28;20056;-81
2022/01/13 10:02:48;;;;;;;83.65;18.35;;;;;;;1.11;100.00;104177.47;5030580;28;20117;-81
2022/01/13 10:05:20;;;;;;;61.53;19.42;;;;;;;1.11;100.00;104188.81;5012939;28;20107;-80
2022/01/13 10:07:47;;;;;;;95.13;17.33;;;;;;;1.18;100.00;104179.72;5012253;28;20029;-81
2022/01/13 10:10:16;;;;;;;105.88;19.17;;;;;;;1.17;100.00;104186.66;5030106;28;20079;-80
2022/01/13 10:12:47;;;;;;;63.47;18.48;;;;;;;1.18;100.00;104182.34;5029609;28;20438;-80
2022/01/13 10:17:46;;;;;;;59.70;18.65;;;;;;;1.18;100.00;104184.94;5029755;28;20102;-80
2022/01/13 10:20:14;;;;;;;91.53;21.08;;;;;;;1.14;100.00;104176.00;5029832;28;20029;-81
2022/01/13 10:22:40;;;;;;;54.92;19.38;;;;;;;1.17;100.00;104184.06;5012103;28;20041;-81
2022/01/13 10:25:05;;;;;;;59.75;20.25;;;;;;;1.20;100.00;104178.13;5028467;28;20064;-81
2022/01/13 10:27:33;;;;;;;112.47;23.88;;;;;;;1.21;100.00;104174.72;5028507;28;20033;-81
2022/01/13 10:30:04;;;;;;;95.10;21.05;;;;;;;1.23;100.00;104179.25;5028538;28;20497;-81
2022/01/13 10:32:38;;;;;;;69.20;20.60;;;;;;;1.24;100.00;104178.47;5028625;28;20116;-81
2022/01/13 10:35:22;;;;;;;116.65;23.27;;;;;;;1.24;100.00;104175.84;5028623;28;20048;-82
2022/01/13 10:37:56;;;;;;;93.68;21.70;;;;;;;1.27;100.00;104176.06;5045151;28;20447;-82
2022/01/13 10:40:30;;;;;;;97.18;22.30;;;;;;;1.28;100.00;104174.34;5030062;28;20397;-82
2022/01/13 10:45:38;;;;;;;88.85;23.73;;;;;;;1.35;100.00;104170.47;5028372;28;20063;-82
2022/01/13 10:48:18;;;;;;;62.20;20.75;;;;;;;1.41;100.00;104169.19;5032025;28;20076;-81
2022/01/13 10:50:48;;;;;;;82.15;23.35;;;;;;;1.45;100.00;104167.69;5015361;28;20095;-80
2022/01/13 10:53:19;;;;;;;68.53;21.55;;;;;;;1.49;100.00;104170.63;5015371;28;20033;-80
2022/01/13 10:55:47;;;;;;;122.28;27.85;;;;;;;1.44;100.00;104168.50;5031626;28;20095;-79
2022/01/13 10:58:15;;;;;;;95.57;24.13;;;;;;;1.44;100.00;104161.56;5031676;28;20099;-81
2022/01/13 11:00:42;;;;;;;114.97;27.92;;;;;;;1.46;100.00;104157.38;5014820;28;20072;-80
2022/01/13 11:03:18;;;;;;;138.93;27.55;;;;;;;1.46;100.00;104151.25;5031972;28;20045;-81
2022/01/13 11:05:47;;;;;;;88.78;26.25;;;;;;;1.46;100.00;104149.53;5036040;28;20033;-80
2022/01/13 11:08:20;;;;;;;72.05;23.92;;;;;;;1.49;100.00;104151.44;5033016;28;20033;-80
2022/01/13 11:10:51;;;;;;;77.70;22.40;;;;;;;1.52;100.00;104149.03;5032640;28;20037;-80
2022/01/13 11:13:18;;;;;;;;;;;;;;;1.56;100.00;104144.91;5033091;28;20049;-80
2022/01/13 11:15:46;;;;;;;82.03;19.67;;;;;;;1.56;100.00;104144.91;5031663;28;19913;-80
2022/01/13 11:18:12;;;;;;;69.88;23.17;;;;;;;1.52;100.00;104149.03;5032688;28;20545;-81
2022/01/13 11:20:39;;;;;;;92.78;22.60;;;;;;;1.56;100.00;104142.28;5015192;28;20041;-80
2022/01/13 11:23:05;;;;;;;105.70;24.02;;;;;;;1.54;100.00;104133.47;5032514;28;20153;-80
2022/01/13 11:25:32;;;;;;;74.80;22.48;;;;;;;1.56;100.00;104134.47;5014605;28;20536;-80
2022/01/13 11:27:58;;;;;;;103.10;23.20;;;;;;;1.60;100.00;104140.00;5032380;28;20179;-81
2022/01/13 11:30:26;;;;;;;69.57;23.58;;;;;;;1.58;100.00;104133.75;5030704;28;20113;-80
2022/01/13 11:32:53;;;;;;;98.53;23.25;;;;;;;1.58;100.00;104132.88;5030861;28;20037;-80
2022/01/13 11:35:22;;;;;;;110.35;23.33;;;;;;;1.54;100.00;104125.63;5014485;28;20389;-80
2022/01/13 11:37:48;;;;;;;64.18;22.15;;;;;;;1.55;100.00;104135.28;5014529;28;20051;-80
2022/01/13 11:40:26;;;;;;;83.80;22.10;;;;;;;1.58;100.00;104118.09;5024558;28;20342;-80